Time;durP1;ratioP1;P1;durP2;ratioP2;P2;SDS_P1;SDS_P2;PMS_P1;PMS_P2;Temp;Humidity;BMP_temperature;BMP_pressure;BME280_temperature;BME280_humidity;BME280_pressure;Samples;Min_cycle;Max_cycle;Signal;HPM_P1;HPM_P2
2022/10/31 00:00:55;;;;;;;19.08;10.75;;;13.10;99.90;;;;;;4905849;29;20456;-81
2022/10/31 00:03:20;;;;;;;16.65;10.50;;;13.10;99.90;;;;;;4919180;29;20043;-80
2022/10/31 00:05:48;;;;;;;20.13;10.38;;;13.10;99.90;;;;;;4903575;29;20039;-80
2022/10/31 00:08:14;;;;;;;17.70;10.05;;;13.10;99.90;;;;;;4953308;29;20126;-80
2022/10/31 00:10:41;;;;;;;14.88;9.80;;;13.10;99.90;;;;;;4936822;29;20094;-80
2022/10/31 00:13:08;;;;;;;21.88;11.20;;;13.10;99.90;;;;;;4936703;29;20377;-80
2022/10/31 00:15:36;;;;;;;19.15;10.40;;;13.00;99.90;;;;;;4938493;29;20452;-80
2022/10/31 00:18:03;;;;;;;17.83;11.05;;;13.00;99.90;;;;;;4922868;29;20495;-80
2022/10/31 00:20:29;;;;;;;18.55;10.88;;;13.00;99.90;;;;;;4922283;29;20076;-80
2022/10/31 00:22:59;;;;;;;16.73;10.70;;;12.90;99.90;;;;;;4922984;29;20044;-80
2022/10/31 00:25:25;;;;;;;20.25;10.90;;;12.90;99.90;;;;;;4925283;29;20040;-80
2022/10/31 00:27:51;;;;;;;18.10;10.95;;;12.80;99.90;;;;;;4957351;29;20035;-80
2022/10/31 00:30:16;;;;;;;16.52;10.98;;;12.80;99.90;;;;;;4925274;29;20506;-80
2022/10/31 00:32:42;;;;;;;20.63;11.65;;;12.80;99.90;;;;;;4941219;29;20039;-81
2022/10/31 00:35:08;;;;;;;17.35;10.43;;;12.80;99.90;;;;;;4924788;29;20059;-80
2022/10/31 00:37:33;;;;;;;17.27;11.57;;;12.80;99.90;;;;;;4941069;29;20476;-80
2022/10/31 00:39:59;;;;;;;13.55;10.07;;;12.80;99.90;;;;;;4909896;29;20079;-80
2022/10/31 00:42:25;;;;;;;16.83;10.27;;;12.80;99.90;;;;;;4909173;29;20042;-80
2022/10/31 00:44:50;;;;;;;17.48;10.63;;;12.80;99.90;;;;;;4925333;29;20043;-79
2022/10/31 00:47:16;;;;;;;18.00;10.20;;;12.80;99.90;;;;;;4924953;29;20543;-80
2022/10/31 00:49:42;;;;;;;16.27;9.55;;;12.80;99.90;;;;;;4940697;29;20484;-80
2022/10/31 00:52:07;;;;;;;15.00;9.80;;;12.80;99.90;;;;;;4940677;29;20078;-80
2022/10/31 00:54:33;;;;;;;17.65;9.70;;;12.80;99.90;;;;;;4924491;29;20047;-80
2022/10/31 00:56:59;;;;;;;16.92;9.27;;;12.80;99.90;;;;;;4940554;29;20047;-80
2022/10/31 00:59:24;;;;;;;11.25;8.57;;;12.80;99.90;;;;;;4939952;29;20090;-80
2022/10/31 01:01:50;;;;;;;12.55;8.27;;;12.80;99.90;;;;;;4956107;29;20122;-80
2022/10/31 01:04:16;;;;;;;14.60;8.63;;;12.80;99.90;;;;;;4924721;29;20046;-80
2022/10/31 01:06:41;;;;;;;12.30;8.68;;;12.70;99.90;;;;;;4932905;29;20095;-80
2022/10/31 01:09:07;;;;;;;18.95;8.02;;;12.70;99.90;;;;;;4905537;29;20419;-80
2022/10/31 01:11:33;;;;;;;17.38;8.43;;;12.70;99.90;;;;;;4889878;29;20082;-79
2022/10/31 01:13:59;;;;;;;12.02;7.50;;;12.70;99.90;;;;;;4921242;29;20043;-80
2022/10/31 01:16:26;;;;;;;15.07;7.70;;;12.70;99.90;;;;;;4927545;29;20093;-80
2022/10/31 01:18:52;;;;;;;16.58;7.88;;;12.70;99.90;;;;;;4956431;29;20113;-80
2022/10/31 01:21:27;;;;;;;13.70;7.32;;;12.70;99.90;;;;;;4924282;29;20039;-80
2022/10/31 01:23:55;;;;;;;13.05;8.00;;;12.70;99.90;;;;;;4956167;28;20066;-79
2022/10/31 01:26:23;;;;;;;16.63;7.95;;;12.60;99.90;;;;;;4955816;29;20046;-80
2022/10/31 01:28:50;;;;;;;13.10;8.13;;;12.60;99.90;;;;;;4939465;29;20133;-80
2022/10/31 01:31:18;;;;;;;14.25;8.18;;;12.60;99.90;;;;;;4939652;29;20183;-80
2022/10/31 01:33:44;;;;;;;11.88;7.68;;;12.60;99.90;;;;;;4955990;29;20114;-80
2022/10/31 01:36:30;;;;;;;14.98;7.95;;;12.50;99.90;;;;;;4940051;29;20389;-80
2022/10/31 01:39:02;;;;;;;11.80;7.57;;;12.50;99.90;;;;;;4939794;29;20046;-80
2022/10/31 01:41:31;;;;;;;11.63;7.53;;;12.50;99.90;;;;;;4939569;29;20067;-80
2022/10/31 01:43:58;;;;;;;13.13;7.55;;;12.50;99.90;;;;;;4939493;29;20043;-80
2022/10/31 01:46:35;;;;;;;13.10;8.10;;;12.40;99.90;;;;;;4955952;29;20074;-80
2022/10/31 01:49:08;;;;;;;9.70;7.45;;;12.30;99.90;;;;;;4940123;29;20058;-80
2022/10/31 01:51:38;;;;;;;11.80;7.88;;;12.30;99.90;;;;;;4955601;29;20061;-80
2022/10/31 01:54:07;;;;;;;13.40;8.23;;;12.20;99.90;;;;;;4955030;29;20043;-79
2022/10/31 01:56:37;;;;;;;12.93;8.50;;;12.20;99.90;;;;;;4955434;29;20126;-80
2022/10/31 01:59:08;;;;;;;15.18;8.55;;;12.20;99.90;;;;;;4955855;29;20039;-79
2022/10/31 02:01:35;;;;;;;16.88;8.23;;;12.20;99.90;;;;;;4939357;29;20494;-80
2022/10/31 02:04:00;;;;;;;14.20;7.97;;;12.20;99.90;;;;;;4923291;29;20055;-80
2022/10/31 02:06:53;;;;;;;16.73;8.15;;;12.10;99.90;;;;;;4907625;29;20061;-80
2022/10/31 02:09:23;;;;;;;13.85;8.63;;;12.10;99.90;;;;;;4939548;29;20042;-80
2022/10/31 02:11:51;;;;;;;10.65;7.75;;;12.20;99.90;;;;;;4938669;29;20047;-79
2022/10/31 02:14:18;;;;;;;10.07;7.30;;;12.10;99.90;;;;;;4939501;29;20066;-79
2022/10/31 02:16:44;;;;;;;14.05;8.32;;;12.10;99.90;;;;;;4939202;29;20045;-79
2022/10/31 02:19:16;;;;;;;15.73;8.20;;;12.10;99.90;;;;;;4923589;29;20496;-80
2022/10/31 02:22:05;;;;;;;12.25;8.13;;;12.10;99.90;;;;;;4954794;29;20054;-80
2022/10/31 02:24:34;;;;;;;11.35;7.70;;;12.10;99.90;;;;;;4927962;29;20035;-80
2022/10/31 02:27:40;;;;;;;16.30;7.32;;;12.00;99.90;;;;;;4938964;29;20511;-80
2022/10/31 02:30:30;;;;;;;11.27;7.40;;;12.10;99.90;;;;;;4938572;28;20488;-80
2022/10/31 02:33:15;;;;;;;10.52;8.07;;;12.00;99.90;;;;;;4902673;29;20460;-80
2022/10/31 02:36:06;;;;;;;11.35;7.60;;;12.00;99.90;;;;;;4953846;28;20055;-80
2022/10/31 02:38:52;;;;;;;14.68;8.30;;;11.90;99.90;;;;;;4936507;29;20463;-80
2022/10/31 02:41:41;;;;;;;10.82;7.57;;;11.90;99.90;;;;;;4954317;29;20039;-80
2022/10/31 02:44:27;;;;;;;13.52;7.82;;;11.90;99.90;;;;;;4935453;29;20040;-79
2022/10/31 02:47:10;;;;;;;14.30;8.15;;;11.90;99.90;;;;;;4946712;29;20039;-80
2022/10/31 02:49:57;;;;;;;12.40;8.00;;;11.80;99.90;;;;;;4938237;29;20077;-79
2022/10/31 02:52:28;;;;;;;11.30;7.70;;;11.80;99.90;;;;;;4954144;29;20134;-80
2022/10/31 02:54:54;;;;;;;11.93;8.55;;;11.80;99.90;;;;;;4953354;29;20039;-80
2022/10/31 02:57:28;;;;;;;13.60;8.30;;;11.80;99.90;;;;;;4937954;29;20090;-80
2022/10/31 03:00:08;;;;;;;12.30;8.05;;;11.80;99.90;;;;;;4954332;29;20075;-80
2022/10/31 03:02:45;;;;;;;13.35;8.50;;;11.80;99.90;;;;;;4953938;29;20045;-80
2022/10/31 03:05:21;;;;;;;23.77;8.63;;;11.70;99.90;;;;;;4938459;29;20488;-80
2022/10/31 03:08:05;;;;;;;16.27;8.63;;;11.70;99.90;;;;;;4926792;29;20043;-80
2022/10/31 03:10:50;;;;;;;13.90;8.48;;;11.60;99.90;;;;;;4955066;29;20051;-80
2022/10/31 03:13:24;;;;;;;10.90;8.55;;;11.60;99.90;;;;;;4939290;29;20129;-81
2022/10/31 03:15:53;;;;;;;12.55;7.97;;;11.50;99.90;;;;;;4938988;29;20046;-80
2022/10/31 03:18:29;;;;;;;16.63;8.77;;;11.50;99.90;;;;;;4938515;29;20480;-79
2022/10/31 03:21:04;;;;;;;14.27;9.32;;;11.50;99.90;;;;;;4926668;29;20071;-79
2022/10/31 03:23:31;;;;;;;19.97;9.47;;;11.50;99.90;;;;;;4936485;29;20043;-80
2022/10/31 03:25:58;;;;;;;10.52;8.40;;;11.40;99.90;;;;;;4938328;29;20370;-81
2022/10/31 03:28:29;;;;;;;11.52;8.18;;;11.40;99.90;;;;;;4938381;29;20051;-80
2022/10/31 03:30:57;;;;;;;16.95;8.68;;;11.40;99.90;;;;;;4937458;29;20122;-80
2022/10/31 03:33:30;;;;;;;13.07;9.50;;;11.40;99.90;;;;;;4938139;29;20134;-80
2022/10/31 03:35:59;;;;;;;13.85;8.63;;;11.40;99.90;;;;;;4953559;29;20039;-80
2022/10/31 03:38:26;;;;;;;15.15;9.10;;;11.30;99.90;;;;;;4954101;29;20095;-80
2022/10/31 03:40:55;;;;;;;15.25;9.82;;;11.30;99.90;;;;;;4922463;29;20071;-80
2022/10/31 03:43:28;;;;;;;16.33;9.48;;;11.30;99.90;;;;;;4937153;29;20043;-80
2022/10/31 03:45:54;;;;;;;15.70;9.55;;;11.30;99.90;;;;;;4938091;29;20039;-80
2022/10/31 03:48:21;;;;;;;12.50;9.70;;;11.30;99.90;;;;;;4924943;29;20093;-80
2022/10/31 03:51:08;;;;;;;12.90;9.48;;;11.20;99.90;;;;;;4926868;29;20046;-80
2022/10/31 03:54:01;;;;;;;16.98;9.90;;;11.20;99.90;;;;;;4941533;29;20658;-80
2022/10/31 03:56:37;;;;;;;13.38;9.55;;;11.20;99.90;;;;;;4933387;29;20052;-80
2022/10/31 03:59:19;;;;;;;12.70;9.15;;;11.20;99.90;;;;;;4941904;29;20043;-80
2022/10/31 04:01:51;;;;;;;19.02;9.75;;;11.20;99.90;;;;;;4958099;29;20042;-80
2022/10/31 04:04:18;;;;;;;16.45;9.90;;;11.20;99.90;;;;;;4942141;29;20102;-80
2022/10/31 04:06:46;;;;;;;17.20;10.23;;;11.20;99.90;;;;;;4950178;29;20043;-80
2022/10/31 04:09:13;;;;;;;16.92;9.80;;;11.10;99.90;;;;;;4923082;29;20052;-80
2022/10/31 04:11:45;;;;;;;16.88;10.13;;;11.10;99.90;;;;;;4922948;29;20496;-80
2022/10/31 04:14:11;;;;;;;15.23;10.02;;;11.10;99.90;;;;;;4922917;29;20126;-80
2022/10/31 04:16:42;;;;;;;10.73;8.57;;;11.10;99.90;;;;;;4907433;29;20126;-80
2022/10/31 04:19:08;;;;;;;15.75;9.20;;;11.10;99.90;;;;;;4951236;29;20396;-80
2022/10/31 04:21:34;;;;;;;16.63;9.82;;;11.10;99.90;;;;;;4925649;29;20046;-80
2022/10/31 04:24:00;;;;;;;15.20;10.68;;;11.10;99.90;;;;;;4925752;29;20039;-80
2022/10/31 04:26:26;;;;;;;16.23;10.23;;;11.10;99.90;;;;;;4956876;29;20058;-80
2022/10/31 04:28:51;;;;;;;13.70;9.73;;;11.00;99.90;;;;;;4941444;29;20142;-80
2022/10/31 04:31:17;;;;;;;16.55;9.32;;;11.00;99.90;;;;;;4957101;28;20059;-80
2022/10/31 04:33:43;;;;;;;13.85;10.15;;;11.00;99.90;;;;;;4941430;29;20090;-80
2022/10/31 04:36:09;;;;;;;14.85;9.98;;;11.00;99.90;;;;;;4921830;29;20051;-80
2022/10/31 04:38:35;;;;;;;10.88;8.00;;;10.90;99.90;;;;;;4939176;29;20031;-80
2022/10/31 04:41:00;;;;;;;13.85;9.30;;;10.90;99.90;;;;;;4925418;29;20426;-81
2022/10/31 04:43:26;;;;;;;13.15;9.45;;;10.90;99.90;;;;;;4956741;29;20043;-80
2022/10/31 04:45:52;;;;;;;17.08;9.35;;;10.90;99.90;;;;;;4924996;29;20042;-80
2022/10/31 04:48:17;;;;;;;14.73;9.75;;;10.90;99.90;;;;;;4941413;28;20078;-80
2022/10/31 04:50:43;;;;;;;14.45;9.82;;;10.90;99.90;;;;;;4956777;28;20476;-80
2022/10/31 04:53:09;;;;;;;17.15;10.40;;;10.90;99.90;;;;;;4940512;29;20043;-80
2022/10/31 04:55:37;;;;;;;13.60;9.65;;;10.90;99.90;;;;;;4939679;29;20035;-80
2022/10/31 04:58:03;;;;;;;14.95;10.75;;;10.80;99.90;;;;;;4955922;28;20035;-80
2022/10/31 05:00:29;;;;;;;16.25;9.90;;;10.80;99.90;;;;;;4940588;29;20126;-80
2022/10/31 05:02:56;;;;;;;14.77;10.45;;;10.80;99.90;;;;;;4924692;29;20066;-80
2022/10/31 05:05:30;;;;;;;15.68;9.98;;;10.70;99.90;;;;;;4940675;29;20043;-80
2022/10/31 05:07:56;;;;;;;15.45;10.82;;;10.70;99.90;;;;;;4947735;29;20483;-80
2022/10/31 05:10:25;;;;;;;16.10;10.32;;;10.70;99.90;;;;;;4941008;29;20186;-80
2022/10/31 05:13:00;;;;;;;16.77;11.80;;;10.70;99.90;;;;;;4956565;29;20047;-80
2022/10/31 05:15:27;;;;;;;17.53;11.27;;;10.70;99.90;;;;;;4940676;29;20051;-80
2022/10/31 05:17:53;;;;;;;17.25;11.80;;;10.70;99.90;;;;;;4940740;29;20043;-80
2022/10/31 05:20:21;;;;;;;22.60;11.68;;;10.70;99.90;;;;;;4940434;29;20126;-80
2022/10/31 05:22:53;;;;;;;18.73;11.38;;;10.60;99.90;;;;;;4956525;29;20039;-80
2022/10/31 05:25:21;;;;;;;17.20;11.50;;;10.60;99.90;;;;;;4940541;29;20035;-80
2022/10/31 05:27:48;;;;;;;15.32;10.50;;;10.60;99.90;;;;;;4940448;29;20039;-80
2022/10/31 05:30:21;;;;;;;14.10;11.05;;;10.60;99.90;;;;;;4940899;28;20115;-80
2022/10/31 05:32:49;;;;;;;15.60;10.95;;;10.60;99.90;;;;;;4955640;29;20056;-80
2022/10/31 05:35:21;;;;;;;13.98;10.57;;;10.60;99.90;;;;;;4956074;29;20091;-80
2022/10/31 05:37:47;;;;;;;17.52;12.13;;;10.60;99.90;;;;;;4956248;29;20054;-80
2022/10/31 05:40:14;;;;;;;17.20;12.32;;;10.90;99.90;;;;;;4939984;29;20043;-80
2022/10/31 05:42:41;;;;;;;17.70;11.70;;;10.50;99.90;;;;;;4940326;29;20053;-81
2022/10/31 05:45:14;;;;;;;17.40;10.93;;;10.50;99.90;;;;;;4908052;29;20407;-80
2022/10/31 05:47:40;;;;;;;14.65;11.40;;;10.40;99.90;;;;;;4940440;29;20377;-81
2022/10/31 05:50:07;;;;;;;14.77;10.27;;;10.50;99.90;;;;;;4940310;29;20039;-82
2022/10/31 05:52:33;;;;;;;13.95;10.00;;;10.40;99.90;;;;;;4955009;29;20076;-80
2022/10/31 05:54:59;;;;;;;13.35;10.05;;;10.40;99.90;;;;;;4904991;29;20048;-81
2022/10/31 05:57:25;;;;;;;16.52;10.80;;;10.70;99.90;;;;;;4951461;29;20046;-80
2022/10/31 05:59:52;;;;;;;13.43;10.20;;;10.40;99.90;;;;;;4924413;29;20039;-78
2022/10/31 06:02:21;;;;;;;16.08;10.45;;;10.40;99.90;;;;;;4923908;29;20043;-78
2022/10/31 06:04:47;;;;;;;14.55;10.60;;;10.40;99.90;;;;;;4940304;29;20146;-79
2022/10/31 06:07:13;;;;;;;13.63;10.45;;;10.40;99.90;;;;;;4939438;29;20535;-79
2022/10/31 06:09:38;;;;;;;13.23;10.88;;;10.40;99.90;;;;;;4906918;29;20054;-81
2022/10/31 06:12:04;;;;;;;13.68;10.13;;;10.30;99.90;;;;;;4923621;29;20419;-81
2022/10/31 06:14:30;;;;;;;15.82;11.20;;;10.30;99.90;;;;;;4923918;29;20058;-82
2022/10/31 06:16:56;;;;;;;13.95;10.13;;;10.30;99.90;;;;;;4939265;29;20558;-81
2022/10/31 06:19:22;;;;;;;13.00;9.85;;;10.30;99.90;;;;;;4939538;29;20042;-81
2022/10/31 06:21:47;;;;;;;14.43;10.10;;;10.20;99.90;;;;;;4923777;29;20043;-81
2022/10/31 06:24:14;;;;;;;13.30;9.05;;;10.20;99.90;;;;;;4923882;29;20054;-81
2022/10/31 06:26:40;;;;;;;10.88;8.32;;;10.10;99.90;;;;;;4907704;29;20053;-81
2022/10/31 06:29:06;;;;;;;9.98;8.32;;;10.10;99.90;;;;;;4923344;29;20126;-80
2022/10/31 06:31:32;;;;;;;13.00;8.48;;;10.00;99.90;;;;;;4923179;29;20209;-81
2022/10/31 06:33:57;;;;;;;10.73;7.57;;;10.00;99.90;;;;;;4939388;29;20067;-81
2022/10/31 06:36:23;;;;;;;11.32;7.35;;;10.00;99.90;;;;;;4923459;29;20043;-81
2022/10/31 06:38:49;;;;;;;8.82;7.43;;;9.90;99.90;;;;;;4955019;29;20447;-81
2022/10/31 06:41:14;;;;;;;7.95;6.88;;;9.90;99.90;;;;;;4893839;29;20066;-81
2022/10/31 06:43:40;;;;;;;10.18;7.00;;;10.30;99.90;;;;;;4920461;29;20086;-82
2022/10/31 06:46:06;;;;;;;9.02;7.03;;;9.90;99.90;;;;;;4936655;29;20061;-79
2022/10/31 06:48:32;;;;;;;8.50;6.68;;;9.90;99.90;;;;;;4904769;29;20095;-80
2022/10/31 06:50:59;;;;;;;10.60;6.60;;;9.80;99.90;;;;;;4921017;29;20046;-79
2022/10/31 06:53:25;;;;;;;7.50;5.63;;;9.80;99.90;;;;;;4920748;29;20040;-81
2022/10/31 06:55:51;;;;;;;8.40;6.00;;;9.80;99.90;;;;;;4904644;29;20131;-80
2022/10/31 06:58:18;;;;;;;7.25;5.70;;;9.80;99.90;;;;;;4936728;29;20052;-80
2022/10/31 07:00:44;;;;;;;8.65;5.63;;;9.80;99.90;;;;;;4923630;29;20043;-80
2022/10/31 07:03:12;;;;;;;8.13;5.55;;;9.70;99.90;;;;;;4939895;29;20122;-80
2022/10/31 07:05:37;;;;;;;6.95;5.60;;;9.70;99.90;;;;;;4938677;29;20086;-80
2022/10/31 07:08:06;;;;;;;16.70;4.88;;;9.70;99.90;;;;;;4919225;29;20036;-80
2022/10/31 07:10:34;;;;;;;6.00;4.80;;;9.70;99.90;;;;;;4920262;29;20075;-80
2022/10/31 07:13:02;;;;;;;39.13;5.80;;;9.60;99.90;;;;;;4937295;29;20036;-80
2022/10/31 07:15:30;;;;;;;8.00;5.45;;;9.60;99.90;;;;;;4939127;29;20364;-80
2022/10/31 07:18:08;;;;;;;6.38;4.97;;;9.60;99.90;;;;;;4938810;29;20036;-80
2022/10/31 07:20:34;;;;;;;7.07;5.40;;;9.50;99.90;;;;;;4939926;29;20043;-80
2022/10/31 07:23:00;;;;;;;8.07;6.22;;;9.50;99.90;;;;;;4923323;29;20101;-80
2022/10/31 07:25:26;;;;;;;13.07;8.15;;;9.40;99.90;;;;;;4923409;29;20480;-81
2022/10/31 07:27:52;;;;;;;14.65;9.35;;;9.40;99.90;;;;;;4938488;29;20047;-81
2022/10/31 07:30:19;;;;;;;14.00;10.82;;;9.50;99.90;;;;;;4923661;28;20054;-80
2022/10/31 07:32:47;;;;;;;16.48;11.38;;;9.50;99.90;;;;;;4939185;29;20046;-80
2022/10/31 07:35:22;;;;;;;17.23;11.40;;;9.60;99.90;;;;;;4938521;29;20070;-80
2022/10/31 07:37:48;;;;;;;17.98;11.73;;;9.70;99.90;;;;;;4938709;29;20094;-80
2022/10/31 07:40:15;;;;;;;17.48;11.00;;;9.70;99.90;;;;;;4938709;29;20035;-80
2022/10/31 07:42:46;;;;;;;16.67;12.30;;;9.70;99.90;;;;;;4938516;29;20391;-80
2022/10/31 07:45:15;;;;;;;17.15;12.57;;;9.70;99.90;;;;;;4938677;29;20049;-80
2022/10/31 07:47:51;;;;;;;16.42;12.38;;;9.80;99.90;;;;;;4939016;29;20204;-80
2022/10/31 07:50:28;;;;;;;18.27;13.25;;;10.00;99.90;;;;;;4923201;29;20102;-80
2022/10/31 07:53:09;;;;;;;19.13;13.10;;;9.90;99.90;;;;;;4954738;29;20075;-81
2022/10/31 07:55:35;;;;;;;18.33;13.57;;;10.00;99.90;;;;;;4954749;29;20053;-80
2022/10/31 07:58:07;;;;;;;19.98;13.40;;;10.00;99.90;;;;;;4939138;29;20055;-81
2022/10/31 08:00:35;;;;;;;18.85;13.40;;;10.00;99.90;;;;;;4954881;29;20047;-81
2022/10/31 08:03:09;;;;;;;17.77;13.68;;;10.10;99.90;;;;;;4943350;29;20057;-81
2022/10/31 08:05:36;;;;;;;18.98;13.75;;;10.20;99.90;;;;;;4963470;29;20103;-81
2022/10/31 08:08:02;;;;;;;20.20;15.02;;;10.20;99.90;;;;;;4948064;29;20103;-80
2022/10/31 08:10:28;;;;;;;21.42;14.70;;;10.30;99.90;;;;;;4947438;29;20039;-82
2022/10/31 08:13:03;;;;;;;19.05;14.73;;;10.30;99.90;;;;;;4906915;29;20447;-81
2022/10/31 08:15:29;;;;;;;20.88;15.77;;;10.50;99.90;;;;;;4955164;29;20373;-80
2022/10/31 08:17:55;;;;;;;24.38;16.75;;;10.50;99.90;;;;;;4904043;29;20389;-80
2022/10/31 08:20:21;;;;;;;23.38;17.63;;;10.60;99.90;;;;;;4934058;29;20484;-80
2022/10/31 08:23:02;;;;;;;22.50;17.05;;;10.70;99.90;;;;;;4938652;29;20039;-81
2022/10/31 08:25:33;;;;;;;29.33;18.75;;;10.80;99.90;;;;;;4938335;29;20039;-81
2022/10/31 08:27:59;;;;;;;27.27;18.67;;;10.80;99.90;;;;;;4934247;29;20035;-80
2022/10/31 08:30:27;;;;;;;25.33;19.55;;;11.00;99.90;;;;;;4947721;28;20404;-82
2022/10/31 08:33:06;;;;;;;28.67;20.13;;;11.00;99.90;;;;;;4937720;29;20057;-80
2022/10/31 08:35:33;;;;;;;31.00;20.48;;;11.10;99.90;;;;;;4926838;29;20046;-81
2022/10/31 08:37:59;;;;;;;30.08;20.15;;;11.50;99.90;;;;;;4941428;29;20043;-81
2022/10/31 08:40:26;;;;;;;31.50;21.08;;;11.10;99.90;;;;;;4942186;29;20043;-80
2022/10/31 08:42:59;;;;;;;31.67;21.95;;;11.20;99.90;;;;;;4942200;29;20166;-80
2022/10/31 08:45:25;;;;;;;30.55;21.08;;;11.20;99.90;;;;;;4942616;29;20400;-80
2022/10/31 08:47:51;;;;;;;33.13;21.30;;;11.20;99.90;;;;;;4941359;29;20047;-81
2022/10/31 08:50:17;;;;;;;31.05;21.85;;;11.30;99.90;;;;;;4925744;29;20043;-81
2022/10/31 08:52:43;;;;;;;29.80;22.13;;;11.50;99.90;;;;;;4941712;29;20110;-81
2022/10/31 08:55:08;;;;;;;33.83;23.00;;;11.40;99.90;;;;;;4938290;29;20044;-81
2022/10/31 08:57:34;;;;;;;29.70;22.48;;;11.60;99.90;;;;;;4930250;29;20495;-81
2022/10/31 09:00:00;;;;;;;31.58;23.15;;;11.40;99.90;;;;;;4909656;29;20043;-81
2022/10/31 09:02:26;;;;;;;32.03;21.02;;;11.50;99.90;;;;;;4910045;29;20423;-81
2022/10/31 09:04:51;;;;;;;32.28;22.13;;;11.60;99.90;;;;;;4940603;29;20122;-82
2022/10/31 09:07:17;;;;;;;31.30;21.35;;;11.70;99.90;;;;;;4933109;29;20051;-82
2022/10/31 09:09:43;;;;;;;36.47;22.83;;;11.80;99.90;;;;;;4922558;29;20044;-81
2022/10/31 09:12:08;;;;;;;35.95;22.67;;;11.90;99.90;;;;;;4933602;29;20387;-81
2022/10/31 09:14:34;;;;;;;32.72;22.27;;;12.00;99.90;;;;;;4940905;29;20047;-81
2022/10/31 09:16:59;;;;;;;36.47;21.63;;;12.10;99.90;;;;;;4925565;29;20396;-82
2022/10/31 09:19:25;;;;;;;34.42;23.00;;;12.10;99.90;;;;;;4941443;29;20044;-82
2022/10/31 09:21:54;;;;;;;34.95;23.38;;;12.10;99.90;;;;;;4908993;29;20143;-81
2022/10/31 09:24:20;;;;;;;38.22;23.35;;;12.10;99.90;;;;;;4922681;29;20050;-81
2022/10/31 09:26:46;;;;;;;36.28;24.85;;;12.10;99.90;;;;;;4953374;29;20692;-81
2022/10/31 09:29:11;;;;;;;36.03;24.10;;;12.20;99.90;;;;;;4925829;29;20039;-81
2022/10/31 09:31:37;;;;;;;34.17;23.58;;;12.30;99.90;;;;;;4910038;29;20039;-81
2022/10/31 09:34:03;;;;;;;32.05;22.33;;;12.40;99.90;;;;;;4940683;29;20106;-81
2022/10/31 09:36:29;;;;;;;29.38;22.10;;;12.50;99.90;;;;;;4957431;29;20051;-82
2022/10/31 09:38:55;;;;;;;31.55;22.08;;;12.50;99.90;;;;;;4909733;29;20032;-83
2022/10/31 09:41:44;;;;;;;32.90;20.58;;;12.60;99.90;;;;;;4906833;29;20478;-81
2022/10/31 09:44:58;;;;;;;29.88;20.60;;;12.60;99.90;;;;;;4956004;28;20082;-81
2022/10/31 09:47:27;;;;;;;33.95;20.88;;;12.60;99.90;;;;;;4930373;29;20047;-81
2022/10/31 09:49:59;;;;;;;36.08;21.63;;;12.60;99.90;;;;;;4939372;29;20114;-82
2022/10/31 09:52:33;;;;;;;29.60;20.55;;;12.60;99.90;;;;;;4937681;29;20050;-81
2022/10/31 09:55:08;;;;;;;29.20;21.25;;;12.60;99.90;;;;;;4920560;29;20044;-80
2022/10/31 09:57:36;;;;;;;30.60;21.38;;;12.60;99.90;;;;;;4920290;29;20143;-81
2022/10/31 10:00:05;;;;;;;28.92;20.10;;;12.70;99.90;;;;;;4920716;29;20044;-80
2022/10/31 10:02:40;;;;;;;31.05;19.35;;;12.60;99.90;;;;;;4937620;29;20052;-80
2022/10/31 10:05:10;;;;;;;29.85;20.67;;;12.70;99.90;;;;;;4945355;29;20476;-80
2022/10/31 10:07:59;;;;;;;30.65;20.23;;;12.70;99.90;;;;;;4954759;29;20106;-80
2022/10/31 10:10:52;;;;;;;27.98;19.42;;;12.80;99.90;;;;;;4954770;29;20071;-81
2022/10/31 10:13:46;;;;;;;29.40;19.63;;;12.80;99.90;;;;;;4937315;29;20051;-80
2022/10/31 10:16:40;;;;;;;29.17;20.10;;;12.90;99.90;;;;;;4954348;29;20113;-80
2022/10/31 10:19:44;;;;;;;28.77;19.25;;;13.00;99.90;;;;;;4936687;29;20035;-80
2022/10/31 10:22:20;;;;;;;29.45;20.00;;;13.20;99.90;;;;;;4917832;29;20134;-79
2022/10/31 10:25:04;;;;;;;28.88;20.15;;;13.30;99.90;;;;;;4937557;29;20380;-79
2022/10/31 10:27:51;;;;;;;29.35;20.08;;;13.40;99.90;;;;;;4949729;28;20138;-79
2022/10/31 10:30:38;;;;;;;24.55;18.15;;;13.60;99.90;;;;;;4929173;29;20039;-79
2022/10/31 10:33:28;;;;;;;23.23;16.95;;;13.70;99.90;;;;;;4946935;28;20047;-78
2022/10/31 10:36:03;;;;;;;24.50;16.52;;;13.80;99.90;;;;;;4932744;29;20130;-80
2022/10/31 10:38:49;;;;;;;23.30;15.93;;;14.00;99.90;;;;;;4930636;28;20414;-80
2022/10/31 10:41:27;;;;;;;25.23;16.10;;;14.00;99.90;;;;;;4938833;29;20050;-80
2022/10/31 10:43:56;;;;;;;25.52;16.08;;;14.10;99.90;;;;;;4938929;29;20043;-80
2022/10/31 10:49:33;;;;;;;17.85;14.23;;;14.20;99.90;;;;;;4949897;29;20043;-79
2022/10/31 10:52:19;;;;;;;22.35;13.77;;;14.30;99.90;;;;;;4941879;29;20051;-80
2022/10/31 10:54:56;;;;;;;22.02;14.20;;;14.40;99.90;;;;;;4942560;29;20102;-79
2022/10/31 10:57:54;;;;;;;23.25;13.65;;;14.40;99.90;;;;;;4938512;29;20039;-80
2022/10/31 11:00:36;;;;;;;18.75;13.20;;;14.50;99.90;;;;;;4939343;28;20057;-80
2022/10/31 11:03:02;;;;;;;22.92;12.70;;;14.50;99.90;;;;;;4936931;29;20126;-80
2022/10/31 11:05:37;;;;;;;17.70;12.40;;;14.60;99.90;;;;;;4954132;29;20059;-81
2022/10/31 11:08:04;;;;;;;24.30;13.70;;;14.60;99.90;;;;;;4946641;29;20045;-81
2022/10/31 11:10:30;;;;;;;16.60;12.75;;;14.60;99.90;;;;;;4939020;29;20048;-81
2022/10/31 11:13:13;;;;;;;20.63;13.43;;;14.60;99.90;;;;;;4954601;29;20047;-81
2022/10/31 11:16:09;;;;;;;21.40;13.05;;;14.60;99.90;;;;;;4938212;29;20141;-81
2022/10/31 11:18:41;;;;;;;19.13;12.70;;;14.60;99.90;;;;;;4928953;29;20084;-81
2022/10/31 11:21:21;;;;;;;17.95;12.65;;;14.60;99.90;;;;;;4954126;28;20046;-81
2022/10/31 11:23:47;;;;;;;20.08;13.35;;;14.60;99.90;;;;;;4949319;29;20039;-80
2022/10/31 11:26:20;;;;;;;21.27;12.90;;;14.60;99.90;;;;;;4937865;29;20058;-80
2022/10/31 11:28:57;;;;;;;19.17;13.52;;;14.70;99.90;;;;;;4936525;29;20050;-81
2022/10/31 11:31:24;;;;;;;25.83;13.35;;;14.70;99.90;;;;;;4938420;29;20059;-80
2022/10/31 11:33:57;;;;;;;21.15;14.18;;;14.70;99.90;;;;;;4933144;29;20051;-80
2022/10/31 11:36:26;;;;;;;19.70;13.70;;;14.80;99.90;;;;;;4941878;28;20127;-80
2022/10/31 11:38:53;;;;;;;17.15;13.57;;;14.80;99.90;;;;;;4937243;29;20113;-80
2022/10/31 11:41:25;;;;;;;22.08;13.48;;;14.90;99.90;;;;;;4936950;29;20086;-79
2022/10/31 11:43:55;;;;;;;20.20;14.20;;;14.90;99.90;;;;;;4937964;29;20063;-82
2022/10/31 11:46:46;;;;;;;22.02;13.63;;;14.90;99.90;;;;;;4937841;29;20051;-80
2022/10/31 11:49:19;;;;;;;21.80;13.52;;;14.90;99.90;;;;;;4946987;28;20047;-80
2022/10/31 11:51:51;;;;;;;23.02;14.15;;;15.00;99.90;;;;;;4937828;28;20126;-80
2022/10/31 11:54:25;;;;;;;20.33;12.57;;;15.10;99.90;;;;;;4935681;29;20382;-80
2022/10/31 11:56:51;;;;;;;21.35;12.98;;;15.10;99.90;;;;;;4951395;29;20039;-80
2022/10/31 11:59:32;;;;;;;20.10;13.43;;;15.10;99.90;;;;;;4934526;29;20052;-81
2022/10/31 12:02:00;;;;;;;19.77;12.90;;;15.20;99.90;;;;;;4952947;28;20435;-81
2022/10/31 12:04:38;;;;;;;17.98;12.60;;;15.20;99.90;;;;;;4920697;29;20043;-81
2022/10/31 12:07:04;;;;;;;19.20;13.05;;;15.30;99.90;;;;;;4933265;28;20035;-81
2022/10/31 12:09:34;;;;;;;20.70;12.55;;;15.30;99.90;;;;;;4925242;29;20074;-81
2022/10/31 12:12:36;;;;;;;20.90;12.75;;;15.30;99.90;;;;;;4959406;29;20090;-81
2022/10/31 12:15:22;;;;;;;17.67;11.88;;;15.40;99.90;;;;;;4941946;29;20050;-82
2022/10/31 12:18:09;;;;;;;17.73;12.52;;;15.40;99.90;;;;;;4942062;29;20043;-82
2022/10/31 12:20:44;;;;;;;18.42;11.85;;;15.40;99.90;;;;;;4958449;29;20079;-81
2022/10/31 12:23:29;;;;;;;16.70;11.85;;;15.30;99.90;;;;;;4942116;29;20189;-82
2022/10/31 12:26:12;;;;;;;21.63;12.95;;;15.40;99.90;;;;;;4941863;29;20594;-82
2022/10/31 12:28:44;;;;;;;18.70;12.63;;;15.40;99.90;;;;;;4958340;29;20035;-82
2022/10/31 12:31:20;;;;;;;23.63;12.77;;;15.40;99.90;;;;;;4941618;29;20075;-82
2022/10/31 12:33:58;;;;;;;;;;;15.40;99.90;;;;;;4942356;28;20050;-81
2022/10/31 12:36:33;;;;;;;17.80;11.70;;;15.40;99.90;;;;;;4951706;29;19930;-81
2022/10/31 12:39:27;;;;;;;25.08;11.27;;;15.50;99.90;;;;;;4926500;29;20043;-81
2022/10/31 12:42:08;;;;;;;24.95;13.02;;;15.50;99.90;;;;;;4941131;29;20488;-82
2022/10/31 12:45:11;;;;;;;17.73;10.60;;;15.60;99.90;;;;;;4942195;29;20535;-82
2022/10/31 12:47:49;;;;;;;17.63;11.30;;;15.60;99.90;;;;;;4924055;29;20078;-82
2022/10/31 12:50:23;;;;;;;14.80;10.48;;;15.60;99.90;;;;;;4937499;29;20075;-81
2022/10/31 12:53:19;;;;;;;18.98;11.57;;;15.70;99.90;;;;;;4956787;29;20050;-81
2022/10/31 12:56:06;;;;;;;19.63;10.02;;;15.80;99.90;;;;;;4953696;29;20040;-82
2022/10/31 12:58:44;;;;;;;16.92;9.93;;;15.90;99.90;;;;;;4943272;29;20047;-81